Time;durP1;ratioP1;P1;durP2;ratioP2;P2;SDS_P1;SDS_P2;PMS_P1;PMS_P2;Temp;Humidity;BMP_temperature;BMP_pressure;BME280_temperature;BME280_humidity;BME280_pressure;Samples;Min_cycle;Max_cycle;Signal;HPM_P1;HPM_P2
2021/12/06 00:00:46;;;;;;;1.50;1.00;;;;;;;;;;5011161;28;20410;-65
2021/12/06 00:03:15;;;;;;;1.63;1.03;;;;;;;;;;5011607;28;20453;-63
2021/12/06 00:05:41;;;;;;;1.50;1.07;;;;;;;;;;5011435;28;20414;-69
2021/12/06 00:08:07;;;;;;;1.67;1.10;;;;;;;;;;5011066;28;20437;-68
2021/12/06 00:10:33;;;;;;;1.27;0.83;;;;;;;;;;5011248;28;20454;-66
2021/12/06 00:13:00;;;;;;;2.63;1.20;;;;;;;;;;5011016;28;20457;-67
2021/12/06 00:15:31;;;;;;;1.33;1.00;;;;;;;;;;5011377;28;20523;-65
2021/12/06 00:17:57;;;;;;;1.70;1.00;;;;;;;;;;5011296;28;20430;-66
2021/12/06 00:20:23;;;;;;;1.30;0.90;;;;;;;;;;5010945;28;20406;-68
2021/12/06 00:22:49;;;;;;;1.40;0.83;;;;;;;;;;5011472;28;20497;-69
2021/12/06 00:25:15;;;;;;;1.37;0.97;;;;;;;;;;5010987;28;20422;-67
2021/12/06 00:27:41;;;;;;;1.50;1.00;;;;;;;;;;5011232;28;20477;-68
2021/12/06 00:30:11;;;;;;;1.70;1.20;;;;;;;;;;5010893;28;20428;-65
2021/12/06 00:32:37;;;;;;;1.13;0.70;;;;;;;;;;5010864;28;20551;-65
2021/12/06 00:35:03;;;;;;;2.27;1.10;;;;;;;;;;5012638;28;20416;-65
2021/12/06 00:37:34;;;;;;;1.70;1.13;;;;;;;;;;5011339;28;20434;-67
2021/12/06 00:40:02;;;;;;;2.73;1.10;;;;;;;;;;5010887;28;20429;-68
2021/12/06 00:42:33;;;;;;;1.40;0.90;;;;;;;;;;5011201;28;20409;-67
2021/12/06 00:44:59;;;;;;;1.87;1.20;;;;;;;;;;5011327;28;20410;-66
2021/12/06 00:47:25;;;;;;;1.87;1.07;;;;;;;;;;5011120;28;20442;-68
2021/12/06 00:49:51;;;;;;;6.50;1.10;;;;;;;;;;5010817;28;20402;-66
2021/12/06 00:52:18;;;;;;;2.83;1.30;;;;;;;;;;5011314;28;20456;-69
2021/12/06 00:54:46;;;;;;;1.10;0.80;;;;;;;;;;5011258;28;20881;-66
2021/12/06 00:57:14;;;;;;;1.77;1.10;;;;;;;;;;5011224;28;20437;-68
2021/12/06 00:59:40;;;;;;;1.60;0.90;;;;;;;;;;5010777;28;20413;-65
2021/12/06 01:02:07;;;;;;;2.90;1.27;;;;;;;;;;5011240;28;20414;-69
2021/12/06 01:04:35;;;;;;;2.10;1.20;;;;;;;;;;5011089;28;20410;-67
2021/12/06 01:07:02;;;;;;;2.03;1.37;;;;;;;;;;5011007;28;20425;-69
2021/12/06 01:09:28;;;;;;;1.73;1.20;;;;;;;;;;5010330;28;20437;-68
2021/12/06 01:11:54;;;;;;;1.50;0.97;;;;;;;;;;5010867;28;20416;-67
2021/12/06 01:14:20;;;;;;;1.57;1.07;;;;;;;;;;5010837;28;20465;-64
2021/12/06 01:16:46;;;;;;;1.97;1.00;;;;;;;;;;5010805;28;20417;-66
2021/12/06 01:19:13;;;;;;;1.97;0.87;;;;;;;;;;5009634;28;20918;-67
2021/12/06 01:24:12;;;;;;;1.70;1.10;;;;;;;;;;5011934;28;20410;-67
2021/12/06 01:39:37;;;;;;;1.53;1.00;;;;;;;;;;5011489;28;20443;-69
2021/12/06 01:42:04;;;;;;;1.50;1.00;;;;;;;;;;5010447;28;20455;-69
2021/12/06 01:44:32;;;;;;;1.40;1.00;;;;;;;;;;5010333;28;20405;-66
2021/12/06 01:47:06;;;;;;;3.47;0.90;;;;;;;;;;5010113;28;20421;-66
2021/12/06 01:49:34;;;;;;;1.20;0.80;;;;;;;;;;5010024;28;20410;-68
2021/12/06 01:52:03;;;;;;;2.03;1.00;;;;;;;;;;5010149;28;20458;-68
2021/12/06 01:54:30;;;;;;;1.87;1.00;;;;;;;;;;5010018;28;20426;-68
2021/12/06 01:56:56;;;;;;;1.47;0.97;;;;;;;;;;5009944;28;20789;-69
2021/12/06 01:59:25;;;;;;;1.73;1.03;;;;;;;;;;5009865;28;20763;-69
2021/12/06 02:01:51;;;;;;;1.40;1.00;;;;;;;;;;5009850;28;20466;-66
2021/12/06 02:04:18;;;;;;;1.60;0.90;;;;;;;;;;5009913;28;20417;-65
2021/12/06 02:06:44;;;;;;;2.03;1.00;;;;;;;;;;5009679;28;20901;-68
2021/12/06 02:09:11;;;;;;;1.90;1.20;;;;;;;;;;5009415;28;20505;-69
2021/12/06 02:11:39;;;;;;;6.97;1.27;;;;;;;;;;5011081;28;20742;-66
2021/12/06 02:14:21;;;;;;;1.83;0.97;;;;;;;;;;5009486;28;20522;-68
2021/12/06 02:17:06;;;;;;;1.83;1.20;;;;;;;;;;5009522;28;20916;-66
2021/12/06 02:19:35;;;;;;;1.20;0.87;;;;;;;;;;5009138;28;20418;-66
2021/12/06 02:22:01;;;;;;;1.50;0.90;;;;;;;;;;5009649;28;20906;-67
2021/12/06 02:24:32;;;;;;;2.53;1.00;;;;;;;;;;5009790;28;20423;-67
2021/12/06 02:26:59;;;;;;;1.70;0.90;;;;;;;;;;5009533;28;20490;-69
2021/12/06 02:29:26;;;;;;;1.40;0.80;;;;;;;;;;5009287;28;20416;-67
2021/12/06 02:31:52;;;;;;;1.53;1.07;;;;;;;;;;5009737;28;20492;-66
2021/12/06 02:34:19;;;;;;;1.30;0.90;;;;;;;;;;5009447;28;20504;-66
2021/12/06 02:36:48;;;;;;;1.70;0.90;;;;;;;;;;5009630;28;20405;-66
2021/12/06 02:39:23;;;;;;;2.03;0.90;;;;;;;;;;5009202;28;20401;-67
2021/12/06 02:41:51;;;;;;;1.63;0.90;;;;;;;;;;5009585;28;20487;-65
2021/12/06 02:44:18;;;;;;;1.40;0.90;;;;;;;;;;5009378;28;20417;-66
2021/12/06 02:46:44;;;;;;;2.17;1.10;;;;;;;;;;5009395;28;20737;-65
2021/12/06 02:49:10;;;;;;;1.50;1.00;;;;;;;;;;5009050;28;20414;-67
2021/12/06 02:51:37;;;;;;;1.77;1.10;;;;;;;;;;5009466;28;20895;-68
2021/12/06 02:54:04;;;;;;;1.50;0.90;;;;;;;;;;5009301;28;20469;-70
2021/12/06 02:58:58;;;;;;;1.47;1.10;;;;;;;;;;5010632;28;20734;-67
2021/12/06 03:01:32;;;;;;;1.70;0.90;;;;;;;;;;5009410;28;20409;-67
2021/12/06 03:03:59;;;;;;;1.23;0.80;;;;;;;;;;5009424;28;20409;-69
2021/12/06 03:06:25;;;;;;;1.50;1.00;;;;;;;;;;5009337;28;20418;-67
2021/12/06 03:08:58;;;;;;;2.13;1.10;;;;;;;;;;5009154;28;20433;-66
2021/12/06 03:11:27;;;;;;;1.73;1.00;;;;;;;;;;5009180;28;20429;-66
2021/12/06 03:13:53;;;;;;;1.80;1.10;;;;;;;;;;5009070;28;20537;-69
2021/12/06 03:16:19;;;;;;;1.70;1.10;;;;;;;;;;5009338;28;20462;-64
2021/12/06 03:18:46;;;;;;;1.47;0.80;;;;;;;;;;5009166;28;20909;-66
2021/12/06 03:21:13;;;;;;;2.23;1.20;;;;;;;;;;5009567;28;20420;-66
2021/12/06 03:23:39;;;;;;;1.60;0.83;;;;;;;;;;5009535;28;20463;-69
2021/12/06 03:26:06;;;;;;;1.70;1.00;;;;;;;;;;5009005;28;20940;-67
2021/12/06 03:28:39;;;;;;;1.63;1.13;;;;;;;;;;5009059;28;20472;-67
2021/12/06 03:31:06;;;;;;;2.20;0.80;;;;;;;;;;5008646;28;20410;-67
2021/12/06 03:33:34;;;;;;;1.60;1.10;;;;;;;;;;5008891;28;20469;-64
2021/12/06 03:36:01;;;;;;;1.53;0.90;;;;;;;;;;5008725;28;20472;-64
2021/12/06 03:38:27;;;;;;;1.77;0.90;;;;;;;;;;5008863;28;20441;-67
2021/12/06 03:40:53;;;;;;;1.50;0.87;;;;;;;;;;5008449;28;20910;-66
2021/12/06 03:43:19;;;;;;;1.23;0.87;;;;;;;;;;5011529;28;20406;-65
2021/12/06 03:45:45;;;;;;;2.53;0.97;;;;;;;;;;5012218;28;20410;-66
2021/12/06 03:48:11;;;;;;;1.23;0.90;;;;;;;;;;5012109;28;20490;-64
2021/12/06 03:50:38;;;;;;;1.60;1.03;;;;;;;;;;5011873;28;20497;-65
2021/12/06 03:53:04;;;;;;;1.60;1.10;;;;;;;;;;5012194;28;20464;-70
2021/12/06 03:55:30;;;;;;;2.03;0.93;;;;;;;;;;5011982;28;20762;-66
2021/12/06 03:57:56;;;;;;;1.57;1.03;;;;;;;;;;5012051;28;20430;-68
2021/12/06 04:00:22;;;;;;;1.70;1.20;;;;;;;;;;5011622;28;20410;-65
2021/12/06 04:02:48;;;;;;;1.80;1.23;;;;;;;;;;5012033;28;20420;-67
2021/12/06 04:05:15;;;;;;;1.33;0.87;;;;;;;;;;5011801;28;20413;-66
2021/12/06 04:07:41;;;;;;;1.93;1.17;;;;;;;;;;5011745;28;20433;-65
2021/12/06 04:10:08;;;;;;;1.10;0.63;;;;;;;;;;5011331;28;20486;-70
2021/12/06 04:12:34;;;;;;;1.60;1.07;;;;;;;;;;5011807;28;20487;-67
2021/12/06 04:15:01;;;;;;;2.10;1.20;;;;;;;;;;5011775;28;20401;-67
2021/12/06 04:17:27;;;;;;;2.23;1.27;;;;;;;;;;5011747;28;20482;-65
2021/12/06 04:19:53;;;;;;;2.37;1.60;;;;;;;;;;5011392;28;20414;-65
2021/12/06 04:22:19;;;;;;;1.57;1.00;;;;;;;;;;5012923;28;20431;-66
2021/12/06 04:24:46;;;;;;;2.50;1.40;;;;;;;;;;5011430;28;20422;-68
2021/12/06 04:27:14;;;;;;;2.83;1.53;;;;;;;;;;5011357;28;20429;-69
2021/12/06 04:29:44;;;;;;;7.57;1.60;;;;;;;;;;5011316;28;20429;-64
2021/12/06 04:32:11;;;;;;;3.00;1.50;;;;;;;;;;5011511;28;20402;-65
2021/12/06 04:34:37;;;;;;;1.97;1.10;;;;;;;;;;5011413;28;20402;-66
2021/12/06 04:37:04;;;;;;;1.33;0.93;;;;;;;;;;5011286;28;21065;-67
2021/12/06 04:39:30;;;;;;;1.97;1.10;;;;;;;;;;5010715;28;20463;-68
2021/12/06 04:41:56;;;;;;;2.17;1.40;;;;;;;;;;5011003;28;20501;-66
2021/12/06 04:44:22;;;;;;;2.73;1.20;;;;;;;;;;5010942;28;20444;-67
2021/12/06 04:46:49;;;;;;;1.67;1.10;;;;;;;;;;5010964;28;20417;-69
2021/12/06 04:49:15;;;;;;;1.40;1.20;;;;;;;;;;5010566;28;20566;-66
2021/12/06 04:51:43;;;;;;;1.70;1.30;;;;;;;;;;5011052;28;20417;-67
2021/12/06 04:54:10;;;;;;;1.80;1.10;;;;;;;;;;5009950;28;20453;-67
2021/12/06 04:56:41;;;;;;;2.13;1.30;;;;;;;;;;5011042;28;20566;-67
2021/12/06 04:59:11;;;;;;;1.80;1.10;;;;;;;;;;5010693;28;20386;-66
2021/12/06 05:01:37;;;;;;;2.07;1.40;;;;;;;;;;5011020;28;20413;-66
2021/12/06 05:04:06;;;;;;;2.00;1.30;;;;;;;;;;5010875;28;20774;-65
2021/12/06 05:06:33;;;;;;;2.07;1.17;;;;;;;;;;5010762;28;20410;-68
2021/12/06 05:09:08;;;;;;;1.97;1.23;;;;;;;;;;5011929;28;20727;-67
2021/12/06 05:11:34;;;;;;;2.17;1.17;;;;;;;;;;5010962;28;20405;-63
2021/12/06 05:14:03;;;;;;;1.60;1.10;;;;;;;;;;5010738;28;20564;-68
2021/12/06 05:16:30;;;;;;;1.80;1.13;;;;;;;;;;5010720;28;20455;-67
2021/12/06 05:18:56;;;;;;;1.70;1.10;;;;;;;;;;5010431;28;20398;-65
2021/12/06 05:21:23;;;;;;;1.70;1.23;;;;;;;;;;5010251;28;20418;-67
2021/12/06 05:23:49;;;;;;;1.83;1.10;;;;;;;;;;5007415;28;20944;-68
2021/12/06 05:26:16;;;;;;;1.73;1.30;;;;;;;;;;5011857;28;20452;-65
2021/12/06 05:28:44;;;;;;;1.23;0.97;;;;;;;;;;5011502;28;20488;-70
2021/12/06 05:31:17;;;;;;;1.77;1.10;;;;;;;;;;5009953;28;20898;-66
2021/12/06 05:33:44;;;;;;;1.43;1.17;;;;;;;;;;5011656;28;20461;-68
2021/12/06 05:36:12;;;;;;;1.37;0.87;;;;;;;;;;5010111;28;20475;-66
2021/12/06 05:38:38;;;;;;;1.60;0.93;;;;;;;;;;5010079;28;20512;-66
2021/12/06 05:41:04;;;;;;;1.50;0.90;;;;;;;;;;5009788;28;20773;-66
2021/12/06 05:43:30;;;;;;;3.20;0.90;;;;;;;;;;5009983;28;20414;-66
2021/12/06 05:45:56;;;;;;;2.70;0.90;;;;;;;;;;5010003;28;20441;-69
2021/12/06 05:48:23;;;;;;;2.40;1.00;;;;;;;;;;5009710;28;20446;-69
2021/12/06 05:50:49;;;;;;;1.47;0.97;;;;;;;;;;5008813;28;20421;-68
2021/12/06 05:53:16;;;;;;;2.30;1.10;;;;;;;;;;5002081;28;20462;-67
2021/12/06 05:55:42;;;;;;;1.67;1.00;;;;;;;;;;5000610;28;20415;-66
2021/12/06 05:58:10;;;;;;;1.90;1.00;;;;;;;;;;5002573;28;20448;-68
2021/12/06 06:00:37;;;;;;;1.50;0.90;;;;;;;;;;5009285;28;20426;-66
2021/12/06 06:03:05;;;;;;;5.23;1.47;;;;;;;;;;5009092;28;20896;-66
2021/12/06 06:05:32;;;;;;;2.30;1.10;;;;;;;;;;5009250;28;20881;-69
2021/12/06 06:07:58;;;;;;;1.60;1.27;;;;;;;;;;5009185;28;20999;-69
2021/12/06 06:10:24;;;;;;;1.40;1.10;;;;;;;;;;5010791;28;20421;-66
2021/12/06 06:12:50;;;;;;;1.40;0.93;;;;;;;;;;5009669;28;20518;-67
2021/12/06 06:15:17;;;;;;;3.57;0.87;;;;;;;;;;5008589;28;20414;-68
2021/12/06 06:17:44;;;;;;;1.77;0.93;;;;;;;;;;4998589;28;20521;-67
2021/12/06 06:20:23;;;;;;;2.70;1.10;;;;;;;;;;4994282;28;20470;-67
2021/12/06 06:22:49;;;;;;;1.40;1.00;;;;;;;;;;4999234;28;20476;-67
2021/12/06 06:25:15;;;;;;;1.80;1.03;;;;;;;;;;5006602;28;20470;-67
2021/12/06 06:27:42;;;;;;;1.60;1.10;;;;;;;;;;5005925;28;21058;-69
2021/12/06 06:30:09;;;;;;;1.43;0.90;;;;;;;;;;5006912;28;21121;-70
2021/12/06 06:32:35;;;;;;;3.43;1.30;;;;;;;;;;5009455;28;20492;-66
2021/12/06 06:35:01;;;;;;;2.20;1.13;;;;;;;;;;5009840;28;20402;-67
2021/12/06 06:37:27;;;;;;;2.33;1.30;;;;;;;;;;5009375;28;20504;-67
2021/12/06 06:39:53;;;;;;;1.47;1.03;;;;;;;;;;5009287;28;20414;-66
2021/12/06 06:42:23;;;;;;;1.97;1.10;;;;;;;;;;5009546;28;20413;-66
2021/12/06 06:44:49;;;;;;;2.80;1.13;;;;;;;;;;5009440;28;20421;-64
2021/12/06 06:47:15;;;;;;;8.80;1.17;;;;;;;;;;5009431;28;20444;-66
2021/12/06 06:49:41;;;;;;;2.30;0.90;;;;;;;;;;5009017;28;20447;-68
2021/12/06 06:52:07;;;;;;;1.20;0.80;;;;;;;;;;5009646;28;20405;-68
2021/12/06 06:54:34;;;;;;;1.40;0.90;;;;;;;;;;5009288;28;20944;-66
2021/12/06 06:57:00;;;;;;;1.27;0.90;;;;;;;;;;5009319;28;20419;-69
2021/12/06 06:59:26;;;;;;;1.70;1.20;;;;;;;;;;5009041;28;20827;-66
2021/12/06 07:01:53;;;;;;;2.17;1.17;;;;;;;;;;5006337;28;20417;-67
2021/12/06 07:04:19;;;;;;;1.60;1.10;;;;;;;;;;5009304;28;20441;-66
2021/12/06 07:06:45;;;;;;;1.67;0.87;;;;;;;;;;5009329;28;20426;-68
2021/12/06 07:09:11;;;;;;;4.27;1.93;;;;;;;;;;5008656;28;20428;-66
2021/12/06 07:11:38;;;;;;;2.90;1.87;;;;;;;;;;5009370;28;20796;-68
2021/12/06 07:14:04;;;;;;;3.10;2.33;;;;;;;;;;5009190;28;20461;-70
2021/12/06 07:16:30;;;;;;;4.87;2.33;;;;;;;;;;5009259;28;20414;-69
2021/12/06 07:18:57;;;;;;;7.47;2.47;;;;;;;;;;5012482;28;20406;-68
2021/12/06 07:21:23;;;;;;;5.07;2.40;;;;;;;;;;5012652;28;20414;-66
2021/12/06 07:23:51;;;;;;;8.13;2.70;;;;;;;;;;5012552;28;20426;-67
2021/12/06 07:26:18;;;;;;;9.30;2.73;;;;;;;;;;5012578;28;20562;-69
2021/12/06 07:28:45;;;;;;;10.90;2.73;;;;;;;;;;5012393;28;20437;-70
2021/12/06 07:31:14;;;;;;;8.73;4.40;;;;;;;;;;5012133;28;20413;-68
2021/12/06 07:33:40;;;;;;;8.27;2.80;;;;;;;;;;5012301;28;20529;-67
2021/12/06 07:36:06;;;;;;;8.83;3.00;;;;;;;;;;5012353;28;20410;-66
2021/12/06 07:38:35;;;;;;;6.03;2.70;;;;;;;;;;5012221;28;20500;-69
2021/12/06 07:41:02;;;;;;;5.43;3.03;;;;;;;;;;5011645;28;20416;-65
2021/12/06 07:43:28;;;;;;;6.90;3.47;;;;;;;;;;5012227;28;20410;-67
2021/12/06 07:45:54;;;;;;;3.50;1.93;;;;;;;;;;5012258;28;20474;-66
2021/12/06 07:48:20;;;;;;;12.10;3.10;;;;;;;;;;5012187;28;20437;-68
2021/12/06 07:50:46;;;;;;;6.00;2.73;;;;;;;;;;5011814;28;20770;-65
2021/12/06 07:53:12;;;;;;;5.23;2.43;;;;;;;;;;5012065;28;20461;-66
2021/12/06 07:55:38;;;;;;;9.00;2.70;;;;;;;;;;5012012;28;20455;-67
2021/12/06 07:58:05;;;;;;;14.93;3.00;;;;;;;;;;5012008;28;20414;-66
2021/12/06 08:00:32;;;;;;;7.30;1.80;;;;;;;;;;5011676;28;20413;-64
2021/12/06 08:02:58;;;;;;;5.90;2.53;;;;;;;;;;5011951;28;20457;-65
2021/12/06 08:05:31;;;;;;;5.60;2.50;;;;;;;;;;5011832;28;20418;-68
2021/12/06 08:08:02;;;;;;;4.30;1.83;;;;;;;;;;5011881;28;20429;-66
2021/12/06 08:10:28;;;;;;;5.03;2.53;;;;;;;;;;5012500;28;20426;-64
2021/12/06 08:12:55;;;;;;;3.77;2.60;;;;;;;;;;5011776;28;20506;-68
2021/12/06 08:15:21;;;;;;;3.40;1.97;;;;;;;;;;5011734;28;20420;-65
2021/12/06 08:17:47;;;;;;;3.60;2.30;;;;;;;;;;5011674;28;20437;-66
2021/12/06 08:20:13;;;;;;;3.90;1.93;;;;;;;;;;5011476;28;20934;-64
2021/12/06 08:22:40;;;;;;;7.30;2.13;;;;;;;;;;5011597;28;20463;-64
2021/12/06 08:25:07;;;;;;;4.30;2.10;;;;;;;;;;5011478;28;20478;-65
2021/12/06 08:27:33;;;;;;;3.17;1.70;;;;;;;;;;5011305;28;20441;-67
2021/12/06 08:30:00;;;;;;;3.80;2.30;;;;;;;;;;5011205;28;20406;-67
2021/12/06 08:32:26;;;;;;;3.93;2.17;;;;;;;;;;5011380;28;20417;-64
2021/12/06 08:34:52;;;;;;;7.60;2.07;;;;;;;;;;5011543;28;20421;-65
2021/12/06 08:37:18;;;;;;;3.90;1.93;;;;;;;;;;5011585;28;20426;-63
2021/12/06 08:39:44;;;;;;;3.13;2.20;;;;;;;;;;5011013;28;20463;-67
2021/12/06 08:42:10;;;;;;;7.20;1.97;;;;;;;;;;5011377;28;20445;-66
2021/12/06 08:44:37;;;;;;;3.90;2.20;;;;;;;;;;5011341;28;20469;-65
2021/12/06 08:47:03;;;;;;;3.03;1.70;;;;;;;;;;5011314;28;20446;-68
2021/12/06 08:49:31;;;;;;;1.67;1.20;;;;;;;;;;5010721;28;20418;-64
2021/12/06 08:51:57;;;;;;;6.57;0.93;;;;;;;;;;5011182;28;20414;-67
2021/12/06 08:54:29;;;;;;;14.50;1.90;;;;;;;;;;5010900;28;20491;-67
2021/12/06 08:56:56;;;;;;;3.80;0.80;;;;;;;;;;5010893;28;20417;-66
2021/12/06 08:59:22;;;;;;;1.23;0.80;;;;;;;;;;5010783;28;20425;-64
2021/12/06 09:01:48;;;;;;;1.80;1.17;;;;;;;;;;5010932;28;20406;-67
2021/12/06 09:04:15;;;;;;;2.10;1.10;;;;;;;;;;5011036;28;20495;-64
2021/12/06 09:06:42;;;;;;;2.20;0.90;;;;;;;;;;5010884;28;20475;-65
2021/12/06 09:09:09;;;;;;;1.37;0.93;;;;;;;;;;5009879;28;21345;-68
2021/12/06 09:11:40;;;;;;;5.73;1.07;;;;;;;;;;5009754;28;20428;-63
2021/12/06 09:14:06;;;;;;;1.47;0.73;;;;;;;;;;5010396;28;20814;-66
2021/12/06 09:16:33;;;;;;;2.43;1.30;;;;;;;;;;5010403;28;20406;-64
2021/12/06 09:19:00;;;;;;;2.37;1.00;;;;;;;;;;5010285;28;20424;-67
2021/12/06 09:21:27;;;;;;;3.50;1.43;;;;;;;;;;5010679;28;20492;-68
2021/12/06 09:23:54;;;;;;;1.40;1.00;;;;;;;;;;5010411;28;20734;-66
2021/12/06 09:26:20;;;;;;;1.77;0.90;;;;;;;;;;5010437;28;20418;-66
2021/12/06 09:28:46;;;;;;;1.70;1.00;;;;;;;;;;5010323;28;20484;-68
2021/12/06 09:31:15;;;;;;;1.63;0.90;;;;;;;;;;5010028;28;20412;-64
2021/12/06 09:33:42;;;;;;;1.10;0.80;;;;;;;;;;5009758;28;20473;-66
2021/12/06 09:36:10;;;;;;;1.90;0.87;;;;;;;;;;5009806;28;20416;-65
2021/12/06 09:38:39;;;;;;;1.50;1.03;;;;;;;;;;5008932;28;20797;-67
2021/12/06 09:41:08;;;;;;;1.73;1.10;;;;;;;;;;5009352;28;20418;-64
2021/12/06 09:43:38;;;;;;;1.63;0.90;;;;;;;;;;5010289;28;20916;-65
2021/12/06 09:46:05;;;;;;;1.00;0.67;;;;;;;;;;5010048;28;20503;-65
2021/12/06 09:48:31;;;;;;;1.63;1.00;;;;;;;;;;5010242;28;20433;-64
2021/12/06 09:51:02;;;;;;;1.20;0.90;;;;;;;;;;5009950;28;20406;-65
2021/12/06 09:53:29;;;;;;;1.70;0.77;;;;;;;;;;5010040;28;20468;-66
2021/12/06 09:55:57;;;;;;;2.23;0.80;;;;;;;;;;5009251;28;20405;-64
2021/12/06 09:58:24;;;;;;;1.47;1.03;;;;;;;;;;5009436;28;20433;-65
2021/12/06 10:00:53;;;;;;;1.83;1.03;;;;;;;;;;5009804;28;20414;-63
2021/12/06 10:03:24;;;;;;;2.10;1.30;;;;;;;;;;5010158;28;20897;-66
2021/12/06 10:05:50;;;;;;;1.23;0.90;;;;;;;;;;5010059;28;20422;-68
2021/12/06 10:08:16;;;;;;;1.60;1.00;;;;;;;;;;5010017;28;20513;-66
2021/12/06 10:10:43;;;;;;;2.30;0.83;;;;;;;;;;5009630;28;20462;-67
2021/12/06 10:13:09;;;;;;;2.27;1.20;;;;;;;;;;5009844;28;21039;-64
2021/12/06 10:15:36;;;;;;;1.27;0.80;;;;;;;;;;5009907;28;20412;-65
2021/12/06 10:18:03;;;;;;;1.30;0.80;;;;;;;;;;5009768;28;20498;-64
2021/12/06 10:20:31;;;;;;;1.50;0.90;;;;;;;;;;5009542;28;20715;-64
2021/12/06 10:22:57;;;;;;;1.53;0.90;;;;;;;;;;5009791;28;20832;-65
2021/12/06 10:25:32;;;;;;;1.40;1.00;;;;;;;;;;5009925;28;20409;-66
2021/12/06 10:28:04;;;;;;;1.30;1.00;;;;;;;;;;5009621;28;20567;-67
2021/12/06 10:30:32;;;;;;;1.50;1.03;;;;;;;;;;5009457;28;20414;-65
2021/12/06 10:33:21;;;;;;;1.50;0.93;;;;;;;;;;5009848;28;20453;-67
2021/12/06 10:35:49;;;;;;;3.07;1.27;;;;;;;;;;4999789;28;20497;-66
2021/12/06 10:38:22;;;;;;;1.80;1.10;;;;;;;;;;5010863;28;20572;-63
2021/12/06 10:40:48;;;;;;;1.40;1.00;;;;;;;;;;5009254;28;20414;-66
2021/12/06 10:43:14;;;;;;;3.40;1.23;;;;;;;;;;5008949;28;20470;-63
2021/12/06 10:45:49;;;;;;;2.20;1.27;;;;;;;;;;4990577;28;20411;-68
2021/12/06 10:48:17;;;;;;;1.43;0.80;;;;;;;;;;4990086;28;20439;-67
2021/12/06 10:51:03;;;;;;;1.40;1.10;;;;;;;;;;4989973;28;20429;-67
2021/12/06 10:53:36;;;;;;;1.80;0.97;;;;;;;;;;4993431;28;20549;-65
2021/12/06 10:56:02;;;;;;;2.03;0.80;;;;;;;;;;4993409;28;20398;-65
2021/12/06 10:58:29;;;;;;;1.30;0.93;;;;;;;;;;4993312;28;20458;-65
2021/12/06 11:00:58;;;;;;;3.00;2.13;;;;;;;;;;4990130;28;20828;-61
2021/12/06 11:03:27;;;;;;;4.43;2.90;;;;;;;;;;4992828;28;20418;-62
2021/12/06 11:05:57;;;;;;;4.40;2.40;;;;;;;;;;4992461;28;20961;-64
2021/12/06 11:08:23;;;;;;;4.53;3.10;;;;;;;;;;4992669;28;20430;-64
2021/12/06 11:10:51;;;;;;;5.70;2.57;;;;;;;;;;4992363;28;20438;-64
2021/12/06 11:13:23;;;;;;;4.37;2.80;;;;;;;;;;4993844;28;20462;-62
2021/12/06 11:16:08;;;;;;;2.73;1.67;;;;;;;;;;4992704;28;20898;-64
2021/12/06 11:18:40;;;;;;;6.17;2.70;;;;;;;;;;4992330;28;20493;-64
2021/12/06 11:21:16;;;;;;;4.17;2.27;;;;;;;;;;4993041;28;20458;-64
2021/12/06 11:23:57;;;;;;;4.53;1.47;;;;;;;;;;5012384;28;20423;-66
2021/12/06 11:26:23;;;;;;;15.37;1.23;;;;;;;;;;5012429;28;20409;-63
2021/12/06 11:28:50;;;;;;;2.23;1.40;;;;;;;;;;5011959;28;20468;-66
2021/12/06 11:31:17;;;;;;;1.73;1.33;;;;;;;;;;5007737;28;20423;-63
2021/12/06 11:33:43;;;;;;;1.60;1.30;;;;;;;;;;5002085;28;20964;-65
2021/12/06 11:36:22;;;;;;;1.60;0.90;;;;;;;;;;4992744;28;20805;-65
2021/12/06 11:38:57;;;;;;;2.47;1.47;;;;;;;;;;5009388;28;20488;-63
2021/12/06 11:41:23;;;;;;;1.83;1.20;;;;;;;;;;5012059;28;20413;-65
2021/12/06 11:43:49;;;;;;;1.70;0.97;;;;;;;;;;5012297;28;20897;-64
2021/12/06 11:46:39;;;;;;;1.87;1.10;;;;;;;;;;5012089;28;20912;-64
2021/12/06 11:49:16;;;;;;;1.60;0.93;;;;;;;;;;5011637;28;20412;-62
2021/12/06 11:51:42;;;;;;;7.17;1.60;;;;;;;;;;5011690;28;20411;-66
2021/12/06 11:54:09;;;;;;;1.80;0.93;;;;;;;;;;5011279;28;20452;-65
2021/12/06 11:56:42;;;;;;;2.00;1.20;;;;;;;;;;5011439;28;20907;-64
2021/12/06 11:59:09;;;;;;;2.40;1.13;;;;;;;;;;5011477;28;20489;-64
2021/12/06 12:01:38;;;;;;;2.07;1.27;;;;;;;;;;5011858;28;20418;-62
2021/12/06 12:04:17;;;;;;;1.40;1.00;;;;;;;;;;5011088;28;20418;-65
2021/12/06 12:06:58;;;;;;;3.53;1.30;;;;;;;;;;5011398;28;20449;-64
2021/12/06 12:09:31;;;;;;;1.30;1.07;;;;;;;;;;5011069;28;20433;-62
2021/12/06 12:11:58;;;;;;;2.00;1.33;;;;;;;;;;5011795;28;20780;-66
2021/12/06 12:14:27;;;;;;;4.63;1.37;;;;;;;;;;5011442;28;20979;-64
2021/12/06 12:16:53;;;;;;;1.60;1.10;;;;;;;;;;5011387;28;20445;-64
2021/12/06 12:19:19;;;;;;;5.47;1.27;;;;;;;;;;5010886;28;20410;-64
2021/12/06 12:21:46;;;;;;;1.57;1.13;;;;;;;;;;5011479;28;20730;-62
2021/12/06 12:24:12;;;;;;;2.90;1.47;;;;;;;;;;5011255;28;20417;-63
2021/12/06 12:26:43;;;;;;;1.97;1.10;;;;;;;;;;5011214;28;20409;-66
2021/12/06 12:29:23;;;;;;;2.43;1.40;;;;;;;;;;5011056;28;20417;-65
2021/12/06 12:31:49;;;;;;;1.77;1.20;;;;;;;;;;5010879;28;20773;-64
2021/12/06 12:34:15;;;;;;;3.00;1.13;;;;;;;;;;5011174;28;20461;-65
2021/12/06 12:36:41;;;;;;;1.53;1.27;;;;;;;;;;5011326;28;20440;-65
2021/12/06 12:39:16;;;;;;;2.30;1.37;;;;;;;;;;5010652;28;20433;-66
2021/12/06 12:41:47;;;;;;;2.10;0.93;;;;;;;;;;5011089;28;20446;-66
2021/12/06 12:44:14;;;;;;;3.07;1.30;;;;;;;;;;5010808;28;20414;-65
2021/12/06 12:46:41;;;;;;;1.53;0.93;;;;;;;;;;5010868;28;20424;-66
2021/12/06 12:49:12;;;;;;;3.87;1.10;;;;;;;;;;5010721;28;20421;-64
2021/12/06 12:51:44;;;;;;;2.80;1.00;;;;;;;;;;5010730;28;20413;-66
2021/12/06 12:54:11;;;;;;;1.87;1.00;;;;;;;;;;5010138;28;20902;-65
2021/12/06 12:56:42;;;;;;;2.57;1.40;;;;;;;;;;5010214;28;20456;-66
2021/12/06 12:59:20;;;;;;;3.27;1.40;;;;;;;;;;5010067;28;20406;-63
2021/12/06 13:02:06;;;;;;;3.70;1.70;;;;;;;;;;5010364;28;20401;-63
2021/12/06 13:04:53;;;;;;;2.70;1.60;;;;;;;;;;5010264;28;20547;-64
2021/12/06 13:07:19;;;;;;;4.00;1.93;;;;;;;;;;4993530;28;20438;-64
2021/12/06 13:09:45;;;;;;;5.13;2.57;;;;;;;;;;5009826;28;20448;-65
2021/12/06 13:12:12;;;;;;;6.23;2.40;;;;;;;;;;5010127;28;20513;-64
2021/12/06 13:14:49;;;;;;;4.17;1.87;;;;;;;;;;5008902;28;20461;-64
2021/12/06 13:17:25;;;;;;;5.93;2.43;;;;;;;;;;5009935;28;20436;-64
2021/12/06 13:20:07;;;;;;;3.70;2.47;;;;;;;;;;5009516;28;20405;-67
2021/12/06 13:22:45;;;;;;;5.80;2.87;;;;;;;;;;5010026;28;20416;-63
2021/12/06 13:25:11;;;;;;;3.90;1.90;;;;;;;;;;5007547;28;20405;-64
2021/12/06 13:27:44;;;;;;;15.40;4.90;;;;;;;;;;5002109;28;20437;-64
2021/12/06 13:30:10;;;;;;;7.20;2.50;;;;;;;;;;5009029;28;20420;-62
2021/12/06 13:32:41;;;;;;;14.23;6.07;;;;;;;;;;5009974;28;20490;-64
2021/12/06 13:35:24;;;;;;;13.80;5.10;;;;;;;;;;5009614;28;20414;-67
2021/12/06 13:37:59;;;;;;;11.63;4.90;;;;;;;;;;5009961;28;20433;-67
2021/12/06 13:40:25;;;;;;;14.93;5.93;;;;;;;;;;5002720;28;20406;-64
2021/12/06 13:42:52;;;;;;;25.43;7.57;;;;;;;;;;5004367;28;20421;-64
2021/12/06 13:45:19;;;;;;;12.27;5.40;;;;;;;;;;5009593;28;20410;-64
2021/12/06 13:47:49;;;;;;;19.50;5.10;;;;;;;;;;5009114;28;20460;-66
2021/12/06 13:50:16;;;;;;;16.40;6.50;;;;;;;;;;5008293;28;20482;-65
2021/12/06 13:52:45;;;;;;;21.13;7.63;;;;;;;;;;5008621;28;20804;-65
2021/12/06 13:55:24;;;;;;;22.63;7.47;;;;;;;;;;5009326;28;20475;-66
2021/12/06 13:57:53;;;;;;;28.87;8.37;;;;;;;;;;5009566;28;20441;-62
2021/12/06 14:00:25;;;;;;;29.03;7.90;;;;;;;;;;4996374;28;20526;-64
2021/12/06 14:02:59;;;;;;;12.17;4.00;;;;;;;;;;5007947;28;20462;-63
2021/12/06 14:05:25;;;;;;;24.23;6.60;;;;;;;;;;5009720;28;20414;-65
2021/12/06 14:07:52;;;;;;;11.70;3.40;;;;;;;;;;5009236;28;20461;-65
2021/12/06 14:10:19;;;;;;;4.30;2.17;;;;;;;;;;5009103;28;20439;-67
2021/12/06 14:12:45;;;;;;;10.80;2.60;;;;;;;;;;5009552;28;20542;-67
2021/12/06 14:15:36;;;;;;;4.67;2.17;;;;;;;;;;5009388;28;20441;-64
2021/12/06 14:18:02;;;;;;;10.80;2.60;;;;;;;;;;4999980;28;20430;-66
2021/12/06 14:20:28;;;;;;;14.70;2.43;;;;;;;;;;4989360;28;20396;-64
2021/12/06 14:22:55;;;;;;;7.10;2.57;;;;;;;;;;4991062;28;20728;-65
2021/12/06 14:25:21;;;;;;;6.67;2.40;;;;;;;;;;5009181;28;20471;-63
2021/12/06 14:27:48;;;;;;;7.87;2.40;;;;;;;;;;5010893;28;20417;-67
2021/12/06 14:30:19;;;;;;;3.97;1.83;;;;;;;;;;5006833;28;20432;-63
2021/12/06 14:32:47;;;;;;;2.90;1.40;;;;;;;;;;5007166;28;20420;-66
2021/12/06 14:35:13;;;;;;;5.83;2.60;;;;;;;;;;5009294;28;21177;-63
2021/12/06 14:37:40;;;;;;;7.20;2.27;;;;;;;;;;5009331;28;20474;-65
2021/12/06 14:40:07;;;;;;;3.73;1.90;;;;;;;;;;5004896;28;20986;-63
2021/12/06 14:42:33;;;;;;;10.07;2.00;;;;;;;;;;4997541;28;20446;-65
2021/12/06 14:45:02;;;;;;;5.63;2.50;;;;;;;;;;5008708;28;20414;-65
2021/12/06 14:47:39;;;;;;;7.43;2.17;;;;;;;;;;5009171;28;20470;-64
2021/12/06 14:50:13;;;;;;;6.47;1.93;;;;;;;;;;5008996;28;20504;-65
2021/12/06 14:52:43;;;;;;;5.50;2.23;;;;;;;;;;5008977;28;20494;-65
2021/12/06 14:57:57;;;;;;;6.80;2.57;;;;;;;;;;5010363;28;20416;-64
2021/12/06 15:00:25;;;;;;;4.03;1.57;;;;;;;;;;5008710;28;20413;-66
2021/12/06 15:02:53;;;;;;;6.13;2.00;;;;;;;;;;4997415;28;20411;-64
2021/12/06 15:05:24;;;;;;;4.50;2.20;;;;;;;;;;5003404;28;20413;-67
2021/12/06 15:07:52;;;;;;;4.57;1.63;;;;;;;;;;5009040;28;20512;-65
2021/12/06 15:10:18;;;;;;;3.10;1.60;;;;;;;;;;5007544;28;20888;-66